Time;durP1;ratioP1;P1;durP2;ratioP2;P2;SDS_P1;SDS_P2;PMS_P1;PMS_P2;Temp;Humidity;BMP_temperature;BMP_pressure;BME280_temperature;BME280_humidity;BME280_pressure;Samples;Min_cycle;Max_cycle;Signal;HPM_P1;HPM_P2
2023/04/26 00:02:22;;;;;;;8.63;6.00;;;282.40;2278.40;;;;;;5052759;28;20447;-71
2023/04/26 00:04:57;;;;;;;11.57;6.60;;;282.40;2278.40;;;;;;5053903;28;20029;-71
2023/04/26 00:07:23;;;;;;;25.55;6.40;;;282.40;2278.40;;;;;;5056245;28;20032;-71
2023/04/26 00:09:51;;;;;;;8.68;6.65;;;282.40;2278.40;;;;;;5046385;28;20013;-78
2023/04/26 00:12:17;;;;;;;11.55;7.78;;;282.30;2278.40;;;;;;5035449;28;20062;-71
2023/04/26 00:14:44;;;;;;;13.07;9.05;;;282.40;2278.40;;;;;;5035451;28;20052;-71
2023/04/26 00:17:10;;;;;;;12.63;8.63;;;282.40;2278.40;;;;;;5037932;28;20029;-71
2023/04/26 00:19:36;;;;;;;12.88;8.73;;;282.40;2278.40;;;;;;5035191;28;20021;-71
2023/04/26 00:22:01;;;;;;;11.32;7.45;;;282.40;2278.40;;;;;;5035323;28;20028;-79
2023/04/26 00:24:28;;;;;;;9.63;7.18;;;282.20;2278.40;;;;;;5040680;28;20017;-71
2023/04/26 00:26:54;;;;;;;15.38;7.15;;;282.20;2278.40;;;;;;5035036;28;20033;-71
2023/04/26 00:29:21;;;;;;;10.70;7.55;;;282.20;2278.40;;;;;;5040044;28;20021;-77
2023/04/26 00:31:46;;;;;;;12.82;7.50;;;282.20;2278.40;;;;;;5035364;28;20388;-71
2023/04/26 00:34:12;;;;;;;12.02;7.68;;;282.20;2278.40;;;;;;5037646;28;20017;-78
2023/04/26 00:36:38;;;;;;;10.90;7.38;;;282.20;2278.40;;;;;;5036783;28;20025;-71
2023/04/26 00:39:03;;;;;;;10.52;8.15;;;282.10;2278.40;;;;;;5041629;28;20084;-71
2023/04/26 00:41:30;;;;;;;12.02;8.10;;;282.30;2278.40;;;;;;5037585;28;20024;-72
2023/04/26 00:43:55;;;;;;;11.45;8.07;;;282.30;2278.40;;;;;;5037402;28;20028;-70
2023/04/26 00:46:21;;;;;;;13.15;7.32;;;282.30;2278.40;;;;;;5034793;28;20017;-78
2023/04/26 00:48:47;;;;;;;17.00;8.40;;;282.20;2278.40;;;;;;5037209;28;20028;-71
2023/04/26 00:51:14;;;;;;;11.75;7.88;;;282.20;2278.40;;;;;;5037605;28;20022;-71
2023/04/26 00:53:41;;;;;;;11.10;7.40;;;282.30;2278.40;;;;;;5037579;28;20018;-77
2023/04/26 00:56:08;;;;;;;11.90;7.43;;;282.40;2278.40;;;;;;5037264;28;20386;-71
2023/04/26 00:58:35;;;;;;;10.15;7.60;;;282.30;2278.40;;;;;;5042820;28;20056;-77
2023/04/26 01:01:01;;;;;;;13.27;8.25;;;282.30;2278.40;;;;;;5037538;28;20100;-75
2023/04/26 01:03:27;;;;;;;12.13;7.50;;;282.30;2278.40;;;;;;5039851;28;20424;-71
2023/04/26 01:05:53;;;;;;;12.85;8.85;;;282.30;2278.40;;;;;;5034521;28;20017;-70
2023/04/26 01:08:20;;;;;;;13.30;8.90;;;282.20;2278.40;;;;;;5039951;28;20028;-79
2023/04/26 01:10:47;;;;;;;19.33;10.75;;;282.30;2278.40;;;;;;5037140;28;20029;-71
2023/04/26 01:13:13;;;;;;;12.85;8.43;;;282.40;2278.40;;;;;;5034348;28;20026;-71
2023/04/26 01:15:45;;;;;;;12.07;7.60;;;282.40;2278.40;;;;;;5034429;28;20017;-71
2023/04/26 01:18:11;;;;;;;12.05;7.68;;;282.40;2278.40;;;;;;5039733;28;20037;-71
2023/04/26 01:20:36;;;;;;;10.70;7.63;;;282.40;2278.40;;;;;;5036962;28;20101;-71
2023/04/26 01:23:02;;;;;;;;;;;282.40;2278.40;;;;;;5037350;28;20033;-71
2023/04/26 01:25:28;;;;;;;11.07;7.87;;;282.30;2278.40;;;;;;5034237;28;19919;-71
2023/04/26 01:27:54;;;;;;;11.35;7.47;;;282.00;2278.40;;;;;;5043141;28;20029;-71
2023/04/26 01:30:19;;;;;;;12.95;8.43;;;281.80;2278.40;;;;;;5038761;28;20024;-78
2023/04/26 01:32:45;;;;;;;16.75;8.65;;;281.60;2278.40;;;;;;5036609;28;20029;-73
2023/04/26 01:35:11;;;;;;;13.35;8.80;;;256.90;2252.80;;;;;;5036509;28;20518;-71
2023/04/26 01:37:36;;;;;;;14.35;9.45;;;256.90;2252.80;;;;;;5036507;28;20052;-71
2023/04/26 01:40:05;;;;;;;;;;;256.80;2252.80;;;;;;5034457;28;20018;-71
2023/04/26 01:42:31;;;;;;;12.07;8.65;;;256.80;2252.80;;;;;;5034278;28;19905;-74
2023/04/26 01:44:56;;;;;;;12.38;9.13;;;256.70;2252.80;;;;;;5033791;28;20050;-78
2023/04/26 01:47:22;;;;;;;;;;;256.60;2252.80;;;;;;5049828;28;20028;-71
2023/04/26 01:49:48;;;;;;;15.05;9.55;;;256.50;2252.80;;;;;;5053709;28;19912;-71
2023/04/26 01:52:14;;;;;;;15.65;9.30;;;256.50;2252.80;;;;;;5033686;28;20477;-71
2023/04/26 01:54:39;;;;;;;;;;;256.50;2252.80;;;;;;5043482;28;20021;-76
2023/04/26 01:57:05;;;;;;;14.70;9.07;;;256.50;2252.80;;;;;;5040276;28;20027;-73
2023/04/26 01:59:31;;;;;;;12.93;9.18;;;256.30;2252.80;;;;;;5033596;28;20112;-71
2023/04/26 02:01:57;;;;;;;16.98;9.55;;;256.30;2252.80;;;;;;5033448;28;20436;-71
2023/04/26 02:04:23;;;;;;;14.30;8.98;;;256.30;2252.80;;;;;;5037606;28;20501;-71
2023/04/26 02:06:48;;;;;;;13.95;9.70;;;256.20;2252.80;;;;;;5037290;28;20449;-72
2023/04/26 02:09:14;;;;;;;20.42;9.63;;;256.20;2252.80;;;;;;5035965;28;20025;-71
2023/04/26 02:11:40;;;;;;;18.92;10.40;;;256.20;2252.80;;;;;;5034298;28;20047;-71
2023/04/26 02:14:06;;;;;;;13.48;9.48;;;256.20;2252.80;;;;;;5039388;28;20021;-72
2023/04/26 02:16:31;;;;;;;;;;;256.20;2252.80;;;;;;5037152;28;20021;-71
2023/04/26 02:18:58;;;;;;;12.93;7.90;;;256.10;2252.80;;;;;;5038517;28;19912;-74
2023/04/26 02:21:25;;;;;;;10.20;7.53;;;256.10;2252.80;;;;;;5035885;28;20056;-78
2023/04/26 02:23:51;;;;;;;16.42;9.23;;;256.20;2252.80;;;;;;5032961;28;20144;-71
2023/04/26 02:26:17;;;;;;;13.40;9.15;;;256.20;2252.80;;;;;;5032958;28;20109;-70
2023/04/26 02:28:43;;;;;;;15.52;9.57;;;256.40;2252.80;;;;;;5035389;28;20082;-71
2023/04/26 02:31:09;;;;;;;15.35;9.93;;;256.30;2252.80;;;;;;5033019;28;20538;-77
2023/04/26 02:33:35;;;;;;;12.80;8.65;;;256.30;2252.80;;;;;;5035403;28;20017;-71
2023/04/26 02:36:05;;;;;;;14.45;9.73;;;256.30;2252.80;;;;;;5032674;28;20172;-77
2023/04/26 02:38:33;;;;;;;13.13;8.82;;;256.30;2252.80;;;;;;5032703;28;20041;-71
2023/04/26 02:41:00;;;;;;;14.32;8.60;;;256.50;2252.80;;;;;;5032794;28;20021;-70
2023/04/26 02:43:26;;;;;;;14.13;9.13;;;256.50;2252.80;;;;;;5036638;28;20037;-72
2023/04/26 02:45:52;;;;;;;14.13;9.82;;;256.60;2252.80;;;;;;5035490;28;20014;-78
2023/04/26 02:48:17;;;;;;;;;;;256.70;2252.80;;;;;;5035681;28;20020;-70
2023/04/26 02:50:43;;;;;;;16.58;9.57;;;256.80;2252.80;;;;;;5032490;28;19905;-71
2023/04/26 02:53:09;;;;;;;;;;;256.80;2252.80;;;;;;5035024;28;20014;-77
2023/04/26 02:55:35;;;;;;;14.20;8.52;;;256.90;2252.80;;;;;;5047323;28;19970;-71
2023/04/26 02:58:01;;;;;;;13.68;9.07;;;256.80;2252.80;;;;;;5035107;28;20108;-71
2023/04/26 03:00:28;;;;;;;11.98;8.85;;;256.80;2252.80;;;;;;5032543;28;20076;-71
2023/04/26 03:02:55;;;;;;;15.80;8.90;;;256.80;2252.80;;;;;;5034761;28;20052;-76
2023/04/26 03:05:21;;;;;;;14.10;8.27;;;256.90;2252.80;;;;;;5031744;28;20017;-78
2023/04/26 03:07:47;;;;;;;15.32;9.05;;;256.90;2252.80;;;;;;5031920;28;20025;-71
2023/04/26 03:10:13;;;;;;;14.18;8.45;;;256.90;2252.80;;;;;;5032079;28;20025;-78
2023/04/26 03:12:38;;;;;;;14.85;9.02;;;256.80;2252.80;;;;;;5031723;28;20373;-71
2023/04/26 03:15:05;;;;;;;12.00;8.57;;;256.80;2252.80;;;;;;5034589;28;20026;-78
2023/04/26 03:17:30;;;;;;;12.90;7.90;;;256.70;2252.80;;;;;;5034659;28;20420;-74
2023/04/26 03:19:56;;;;;;;12.52;8.98;;;256.70;2252.80;;;;;;5034324;28;20096;-77
2023/04/26 03:22:22;;;;;;;13.13;7.93;;;256.60;2252.80;;;;;;5034473;28;20026;-71
2023/04/26 03:24:47;;;;;;;;;;;256.60;2252.80;;;;;;5036423;28;20018;-72
2023/04/26 03:27:13;;;;;;;14.23;8.10;;;256.50;2252.80;;;;;;5033024;28;20036;-74
2023/04/26 03:29:39;;;;;;;13.43;8.82;;;256.60;2252.80;;;;;;5040097;28;20462;-71
2023/04/26 03:32:06;;;;;;;14.10;8.45;;;256.70;2252.80;;;;;;5034043;28;20025;-71
2023/04/26 03:34:31;;;;;;;15.48;8.85;;;256.70;2252.80;;;;;;5031765;28;20024;-71
2023/04/26 03:36:57;;;;;;;11.50;8.02;;;256.70;2252.80;;;;;;5037002;28;20385;-71
2023/04/26 03:39:23;;;;;;;;;;;256.80;2252.80;;;;;;5032528;28;20033;-71
2023/04/26 03:41:49;;;;;;;10.30;7.28;;;256.80;2252.80;;;;;;5035916;28;19959;-71
2023/04/26 03:44:15;;;;;;;;;;;256.70;2252.80;;;;;;5039899;28;20014;-71
2023/04/26 03:46:40;;;;;;;10.95;7.72;;;256.70;2252.80;;;;;;5061874;28;19987;-78
2023/04/26 03:49:06;;;;;;;;;;;256.60;2252.80;;;;;;5046727;28;20029;-71
2023/04/26 03:51:32;;;;;;;12.82;8.18;;;256.70;2252.80;;;;;;5056349;28;19992;-79
2023/04/26 03:53:58;;;;;;;14.90;7.68;;;256.50;2252.80;;;;;;5056257;28;20025;-71
2023/04/26 03:56:24;;;;;;;20.70;10.57;;;256.50;2252.80;;;;;;5053520;28;20100;-71
2023/04/26 03:58:49;;;;;;;15.20;9.85;;;256.50;2252.80;;;;;;5055303;28;20132;-70
2023/04/26 04:01:15;;;;;;;18.88;11.07;;;256.40;2252.80;;;;;;5055566;28;20040;-71
2023/04/26 04:03:41;;;;;;;;;;;256.30;2252.80;;;;;;5055851;28;20150;-71
2023/04/26 04:06:06;;;;;;;;;;;256.30;2252.80;;;;;;5055586;28;19908;-70
2023/04/26 04:08:32;;;;;;;;;;;256.30;2252.80;;;;;;5055844;28;19909;-71
2023/04/26 04:10:58;;;;;;;;;;;256.30;2252.80;;;;;;5055839;28;19994;-72
2023/04/26 04:13:23;;;;;;;;;;;256.30;2252.80;;;;;;5056032;28;19905;-72
2023/04/26 04:15:50;;;;;;;;;;;256.30;2252.80;;;;;;5055924;28;19911;-72
2023/04/26 04:18:15;;;;;;;;;;;256.50;2252.80;;;;;;5057609;28;19917;-71
2023/04/26 04:20:41;;;;;;;;;;;256.60;2252.80;;;;;;5055517;28;19988;-72
2023/04/26 04:23:06;;;;;;;;;;;256.60;2252.80;;;;;;5055467;28;19908;-71
2023/04/26 04:25:33;;;;;;;;;;;256.80;2252.80;;;;;;5054497;28;20416;-71
2023/04/26 04:28:00;;;;;;;;;;;256.60;2252.80;;;;;;5054396;28;20016;-71
2023/04/26 04:30:26;;;;;;;;;;;256.60;2252.80;;;;;;5055272;28;19916;-72
2023/04/26 04:32:52;;;;;;;;;;;256.60;2252.80;;;;;;5059256;28;19905;-71
2023/04/26 04:35:18;;;;;;;;;;;256.50;2252.80;;;;;;5053284;28;19974;-71
2023/04/26 04:37:44;;;;;;;;;;;256.70;2252.80;;;;;;5055485;28;19959;-72
2023/04/26 04:40:10;;;;;;;;;;;256.70;2252.80;;;;;;5051322;28;19905;-72
2023/04/26 04:42:35;;;;;;;;;;;256.60;2252.80;;;;;;5055066;28;19962;-72
2023/04/26 04:45:02;;;;;;;;;;;256.60;2252.80;;;;;;5054994;28;19905;-72
2023/04/26 04:47:27;;;;;;;;;;;256.70;2252.80;;;;;;5056081;28;19905;-72
2023/04/26 04:49:53;;;;;;;;;;;256.80;2252.80;;;;;;5055896;28;19905;-72
2023/04/26 04:52:20;;;;;;;;;;;256.60;2252.80;;;;;;5036123;28;19905;-72
2023/04/26 04:54:46;;;;;;;;;;;256.80;2252.80;;;;;;5035952;28;19916;-74
2023/04/26 04:57:12;;;;;;;;;;;256.70;2252.80;;;;;;5052387;28;19921;-72
2023/04/26 04:59:38;;;;;;;;;;;256.60;2252.80;;;;;;5055722;28;19905;-71
2023/04/26 05:02:04;;;;;;;;;;;256.70;2252.80;;;;;;5055229;28;19911;-71
2023/04/26 05:04:32;;;;;;;;;;;256.70;2252.80;;;;;;5055360;28;19905;-73
2023/04/26 05:06:58;;;;;;;;;;;256.70;2252.80;;;;;;5055336;28;19927;-72
2023/04/26 05:09:24;;;;;;;;;;;256.70;2252.80;;;;;;5055366;28;20345;-72
2023/04/26 05:11:49;;;;;;;;;;;256.90;2252.80;;;;;;5055340;28;20280;-72
2023/04/26 05:14:15;;;;;;;;;;;256.90;2252.80;;;;;;5055419;28;19931;-71
2023/04/26 05:16:41;;;;;;;;;;;281.70;2278.40;;;;;;5055148;28;19996;-75
2023/04/26 05:19:06;;;;;;;;;;;281.60;2278.40;;;;;;5055154;28;19913;-71
2023/04/26 05:21:32;;;;;;;;;;;281.60;2278.40;;;;;;5054927;28;19912;-71
2023/04/26 05:23:58;;;;;;;;;;;281.70;2278.40;;;;;;5055152;28;19912;-71
2023/04/26 05:26:23;;;;;;;;;;;281.70;2278.40;;;;;;5054853;28;19913;-72
2023/04/26 05:28:49;;;;;;;;;;;281.70;2278.40;;;;;;5055197;28;20268;-71
2023/04/26 05:31:14;;;;;;;;;;;281.70;2278.40;;;;;;5054890;28;19959;-71
2023/04/26 05:33:40;;;;;;;;;;;281.70;2278.40;;;;;;5054963;28;19904;-71
2023/04/26 05:36:06;;;;;;;;;;;281.60;2278.40;;;;;;5054846;28;19913;-71
2023/04/26 05:38:31;;;;;;;;;;;281.60;2278.40;;;;;;5054885;28;19967;-78
2023/04/26 05:40:57;;;;;;;;;;;281.70;2278.40;;;;;;5054809;28;20319;-72
2023/04/26 05:43:22;;;;;;;;;;;281.60;2278.40;;;;;;5054823;28;19905;-71
2023/04/26 05:45:54;;;;;;;;;;;281.70;2278.40;;;;;;5054625;28;19904;-71
2023/04/26 05:48:21;;;;;;;;;;;281.80;2278.40;;;;;;5054584;28;20357;-73
2023/04/26 05:50:47;;;;;;;;;;;281.80;2278.40;;;;;;5054636;28;19904;-72
2023/04/26 05:53:13;;;;;;;;;;;281.90;2278.40;;;;;;5054373;28;19905;-78
2023/04/26 05:55:39;;;;;;;;;;;281.80;2278.40;;;;;;5054572;28;19911;-74
2023/04/26 05:58:05;;;;;;;;;;;281.90;2278.40;;;;;;5052859;28;19920;-79
2023/04/26 06:00:31;;;;;;;;;;;281.90;2278.40;;;;;;5054427;28;20474;-72
2023/04/26 06:02:57;;;;;;;;;;;282.00;2278.40;;;;;;5053575;28;19905;-75
2023/04/26 06:05:22;;;;;;;;;;;282.10;2278.40;;;;;;5054234;28;19905;-72
2023/04/26 06:07:48;;;;;;;;;;;282.00;2278.40;;;;;;5054058;28;19950;-72
2023/04/26 06:10:13;;;;;;;;;;;282.00;2278.40;;;;;;5052800;28;19914;-72
2023/04/26 06:12:39;;;;;;;;;;;282.00;2278.40;;;;;;5054092;28;20325;-72
2023/04/26 06:15:05;;;;;;;;;;;282.20;2278.40;;;;;;5054143;28;19913;-72
2023/04/26 06:17:30;;;;;;;;;;;282.10;2278.40;;;;;;5054075;28;19970;-73
2023/04/26 06:19:56;;;;;;;;;;;282.00;2278.40;;;;;;5054333;28;19913;-72
2023/04/26 06:22:21;;;;;;;;;;;282.00;2278.40;;;;;;5053945;28;19912;-72
2023/04/26 06:24:47;;;;;;;;;;;282.20;2278.40;;;;;;5054098;28;19930;-74
2023/04/26 06:27:12;;;;;;;;;;;282.10;2278.40;;;;;;5053580;28;20028;-72
2023/04/26 06:29:38;;;;;;;;;;;282.30;2278.40;;;;;;5053997;28;20379;-72
2023/04/26 06:32:03;;;;;;;;;;;282.30;2278.40;;;;;;5053858;28;20003;-77
2023/04/26 06:34:29;;;;;;;;;;;282.40;2278.40;;;;;;5053904;28;20378;-72
2023/04/26 06:36:55;;;;;;;;;;;282.40;2278.40;;;;;;5053711;28;19904;-71
2023/04/26 06:39:21;;;;;;;;;;;282.50;2278.40;;;;;;5053750;28;20283;-72
2023/04/26 06:41:46;;;;;;;;;;;307.20;2304.00;;;;;;5053383;28;19905;-72
2023/04/26 06:44:12;;;;;;;;;;;307.30;2304.00;;;;;;5053670;28;20344;-72
2023/04/26 06:46:37;;;;;;;;;;;307.30;2304.00;;;;;;5053767;28;20374;-72
2023/04/26 06:49:03;;;;;;;;;;;307.30;2304.00;;;;;;5053900;28;19905;-72
2023/04/26 06:51:28;;;;;;;;;;;282.50;2278.40;;;;;;5053531;28;20275;-72
2023/04/26 06:53:54;;;;;;;;;;;307.20;2304.00;;;;;;5053688;28;19911;-73
2023/04/26 06:56:20;;;;;;;;;;;307.30;2304.00;;;;;;5053315;28;19912;-73
2023/04/26 06:58:59;;;;;;;;;;;307.20;2304.00;;;;;;5053357;28;19917;-72
2023/04/26 07:01:27;;;;;;;;;;;307.30;2304.00;;;;;;5053250;28;20349;-72
2023/04/26 07:03:56;;;;;;;;;;;307.30;2304.00;;;;;;5053741;28;20273;-74
2023/04/26 07:06:22;;;;;;;;;;;307.50;2304.00;;;;;;5053222;28;20448;-73
2023/04/26 07:08:48;;;;;;;;;;;307.60;2304.00;;;;;;5053437;28;20395;-79
2023/04/26 07:11:13;;;;;;;;;;;307.70;2304.00;;;;;;5052056;28;19943;-74
2023/04/26 07:13:39;;;;;;;;;;;307.70;2304.00;;;;;;5054320;28;20288;-73
2023/04/26 07:16:05;;;;;;;;;;;307.80;2304.00;;;;;;5057488;28;20357;-79
2023/04/26 07:18:31;;;;;;;;;;;307.80;2304.00;;;;;;5057414;28;19920;-73
2023/04/26 07:20:56;;;;;;;;;;;307.90;2304.00;;;;;;5057335;28;19912;-74
2023/04/26 07:23:22;;;;;;;;;;;308.10;2304.00;;;;;;5057476;28;19909;-73
2023/04/26 07:25:47;;;;;;;;;;;308.10;2304.00;;;;;;5057189;28;19904;-73
2023/04/26 07:28:13;;;;;;;;;;;332.80;2329.60;;;;;;5057278;28;19940;-75
2023/04/26 07:30:39;;;;;;;;;;;333.00;2329.60;;;;;;5057200;28;20276;-73
2023/04/26 07:33:05;;;;;;;;;;;333.00;2329.60;;;;;;5055974;28;19966;-74
2023/04/26 07:35:30;;;;;;;;;;;333.20;2329.60;;;;;;5057348;28;19905;-73
2023/04/26 07:37:56;;;;;;;;;;;333.20;2329.60;;;;;;5057064;28;19922;-74
2023/04/26 07:40:23;;;;;;;;;;;333.20;2329.60;;;;;;5056861;28;19944;-76
2023/04/26 07:42:49;;;;;;;;;;;333.20;2329.60;;;;;;5056792;28;19911;-74
2023/04/26 07:45:14;;;;;;;;;;;332.90;2329.60;;;;;;5056602;28;19911;-74
2023/04/26 07:47:40;;;;;;;;;;;333.30;2329.60;;;;;;5057036;28;19999;-74
2023/04/26 07:50:06;;;;;;;;;;;333.40;2329.60;;;;;;5056858;28;19916;-76
2023/04/26 07:52:31;;;;;;;;;;;333.20;2329.60;;;;;;5056668;28;19905;-74
2023/04/26 07:54:57;;;;;;;;;;;333.40;2329.60;;;;;;5056601;28;19905;-73
2023/04/26 07:57:23;;;;;;;;;;;333.50;2329.60;;;;;;5056965;28;19928;-80
2023/04/26 07:59:48;;;;;;;;;;;333.50;2329.60;;;;;;5056957;28;20105;-80
2023/04/26 08:02:15;;;;;;;;;;;333.60;2329.60;;;;;;5057188;28;20356;-73
2023/04/26 08:04:46;;;;;;;;;;;333.60;2329.60;;;;;;5056977;28;19946;-83
2023/04/26 08:07:11;;;;;;;;;;;333.60;2329.60;;;;;;5056840;28;19904;-79
2023/04/26 08:09:37;;;;;;;;;;;333.70;2329.60;;;;;;5056346;28;19939;-79
2023/04/26 08:12:03;;;;;;;;;;;358.50;2329.60;;;;;;5056427;28;19904;-77
2023/04/26 08:14:29;;;;;;;;;;;358.50;2329.60;;;;;;5056279;28;19951;-79
2023/04/26 08:16:55;;;;;;;;;;;358.60;2329.60;;;;;;5056488;28;19905;-73
2023/04/26 08:19:21;;;;;;;;;;;358.70;2329.60;;;;;;5056671;28;19911;-78
2023/04/26 08:21:46;;;;;;;;;;;358.90;2329.60;;;;;;5055646;28;19909;-70
2023/04/26 08:24:12;;;;;;;;;;;358.90;2329.60;;;;;;5056385;28;19911;-74
2023/04/26 08:26:37;;;;;;;;;;;359.00;2329.60;;;;;;5054499;28;19913;-74
2023/04/26 08:29:03;;;;;;;;;;;359.00;2329.60;;;;;;5055719;28;19908;-77
2023/04/26 08:31:29;;;;;;;;;;;359.10;2329.60;;;;;;5055793;28;19904;-75
2023/04/26 08:33:54;;;;;;;;;;;359.20;2329.60;;;;;;5055348;28;19961;-78
2023/04/26 08:36:20;;;;;;;;;;;359.20;2329.60;;;;;;5055657;28;20375;-71
2023/04/26 08:38:46;;;;;;;;;;;359.20;2329.60;;;;;;5055120;28;19921;-71
2023/04/26 08:41:15;;;;;;;;;;;359.20;2329.60;;;;;;5055078;28;19948;-77
2023/04/26 08:43:41;;;;;;;;;;;359.20;2329.60;;;;;;5055553;28;19912;-71
2023/04/26 08:46:10;;;;;;;;;;;384.00;2329.60;;;;;;5055988;28;19909;-71
2023/04/26 08:48:36;;;;;;;;;;;384.00;2329.60;;;;;;5055825;28;19951;-75
2023/04/26 08:51:02;;;;;;;;;;;359.20;2329.60;;;;;;5055234;28;19911;-73
2023/04/26 08:53:29;;;;;;;;;;;359.20;2329.60;;;;;;5055489;28;19905;-74
2023/04/26 08:55:55;;;;;;;;;;;359.20;2329.60;;;;;;5055433;28;19991;-74
2023/04/26 08:58:21;;;;;;;;;;;359.20;2329.60;;;;;;5055155;28;20324;-70
2023/04/26 09:00:47;;;;;;;;;;;384.00;2329.60;;;;;;5054943;28;19909;-70
2023/04/26 09:03:13;;;;;;;;;;;384.10;2329.60;;;;;;5055713;28;20402;-71
2023/04/26 09:05:42;;;;;;;;;;;384.20;2329.60;;;;;;5055479;28;19995;-78
2023/04/26 09:08:09;;;;;;;;;;;384.30;2329.60;;;;;;5055341;28;19905;-75
2023/04/26 09:10:35;;;;;;;;;;;384.40;2329.60;;;;;;5055546;28;19905;-70
2023/04/26 09:13:00;;;;;;;;;;;384.50;2329.60;;;;;;5055299;28;19911;-71
2023/04/26 09:15:26;;;;;;;;;;;384.70;2329.60;;;;;;5054666;28;19932;-71
2023/04/26 09:17:52;;;;;;;;;;;384.70;2329.60;;;;;;5053323;28;19912;-79
2023/04/26 09:20:21;;;;;;;;;;;384.90;2329.60;;;;;;5054236;28;20043;-76
2023/04/26 09:22:47;;;;;;;;;;;409.70;2355.20;;;;;;5054789;28;19916;-73
2023/04/26 09:25:14;;;;;;;;;;;409.70;2355.20;;;;;;5053875;28;19930;-75
2023/04/26 09:27:44;;;;;;;;;;;409.80;2355.20;;;;;;5051436;28;20368;-73
2023/04/26 09:30:10;;;;;;;;;;;409.70;2355.20;;;;;;5053800;28;19909;-71
2023/04/26 09:32:55;;;;;;;;;;;409.60;2355.20;;;;;;5054364;28;19908;-73
2023/04/26 09:35:21;;;;;;;;;;;409.60;2355.20;;;;;;5054142;28;20364;-72
2023/04/26 09:37:57;;;;;;;;;;;409.70;2355.20;;;;;;5052681;28;19913;-72
2023/04/26 09:40:22;;;;;;;;;;;409.70;2355.20;;;;;;5054518;28;20425;-78
2023/04/26 09:42:57;;;;;;;;;;;409.90;2355.20;;;;;;5053459;28;19961;-72
2023/04/26 09:45:23;;;;;;;;;;;409.70;2355.20;;;;;;5053445;28;19962;-71
2023/04/26 09:47:50;;;;;;;;;;;409.80;2355.20;;;;;;5053531;28;19936;-71
2023/04/26 09:50:29;;;;;;;;;;;410.40;2329.60;;;;;;5052794;28;19931;-73
2023/04/26 09:52:55;;;;;;;;;;;410.20;2227.20;;;;;;5048605;28;19910;-73
2023/04/26 09:55:28;;;;;;;;;;;410.40;2252.80;;;;;;5053940;28;20284;-72
2023/04/26 09:57:54;;;;;;;;;;;410.40;2099.20;;;;;;5052962;28;19921;-72
2023/04/26 10:00:20;;;;;;;;;;;435.30;2099.20;;;;;;5053126;28;19908;-70
2023/04/26 10:02:46;;;;;;;;;;;435.20;2150.40;;;;;;5053639;28;19931;-76
2023/04/26 10:05:11;;;;;;;;;;;410.30;2150.40;;;;;;5053033;28;19934;-71
2023/04/26 10:07:37;;;;;;;;;;;435.30;2124.80;;;;;;5052991;28;20281;-70
2023/04/26 10:10:04;;;;;;;;;;;435.30;2099.20;;;;;;5053528;28;19905;-73
2023/04/26 10:12:29;;;;;;;;;;;435.40;2048.00;;;;;;5051812;28;19916;-75
2023/04/26 10:14:56;;;;;;;;;;;435.60;1971.20;;;;;;5053320;28;20276;-69
2023/04/26 10:17:21;;;;;;;;;;;435.70;1894.40;;;;;;5053337;28;20371;-72
2023/04/26 10:19:48;;;;;;;;;;;435.50;1971.20;;;;;;5052788;28;19913;-70
2023/04/26 10:22:22;;;;;;;;;;;435.50;1920.00;;;;;;5050180;28;19908;-71
2023/04/26 10:24:48;;;;;;;;;;;435.80;1792.00;;;;;;5053258;28;19909;-69
2023/04/26 10:27:13;;;;;;;;;;;460.80;1920.00;;;;;;5052659;28;20000;-71
2023/04/26 10:29:54;;;;;;;;;;;436.10;1792.00;;;;;;5053234;28;19908;-71
2023/04/26 10:32:23;;;;;;;;;;;435.70;1817.60;;;;;;5050621;28;19947;-72
2023/04/26 10:35:07;;;;;;;;;;;435.50;1817.60;;;;;;5053233;28;19916;-73
2023/04/26 10:37:32;;;;;;;;;;;435.50;1792.00;;;;;;5052773;28;19923;-71
2023/04/26 10:40:17;;;;;;;;;;;435.90;1766.40;;;;;;5052719;28;19905;-71
2023/04/26 10:42:43;;;;;;;;;;;436.10;1689.60;;;;;;5067949;28;19919;-71
2023/04/26 10:45:24;;;;;;;;;;;461.10;1689.60;;;;;;5053000;28;20276;-72
2023/04/26 10:47:49;;;;;;;;;;;461.30;1638.40;;;;;;5052398;28;19993;-74
2023/04/26 10:50:15;;;;;;;;;;;461.30;1638.40;;;;;;5067609;28;19952;-71
2023/04/26 10:52:59;;;;;;;;;;;460.90;1587.20;;;;;;5052289;28;19909;-71
2023/04/26 10:55:37;;;;;;;;;;;436.10;1612.80;;;;;;5052381;28;19909;-72
2023/04/26 10:58:22;;;;;;;;;;;461.00;1612.80;;;;;;5052323;28;19928;-71
2023/04/26 11:01:07;;;;;;;;;;;461.00;1612.80;;;;;;5052247;28;19944;-71
2023/04/26 11:03:33;;;;;;;;;;;461.20;1561.60;;;;;;5052073;28;19955;-71
2023/04/26 11:05:58;;;;;;;;;;;461.00;1587.20;;;;;;5052180;28;19908;-70
2023/04/26 11:08:28;;;;;;;;;;;436.10;1536.00;;;;;;5051928;28;19957;-71
2023/04/26 11:11:03;;;;;;;;;;;436.10;1459.20;;;;;;5052005;28;20323;-71
2023/04/26 11:13:34;;;;;;;;;;;461.20;1408.00;;;;;;5050479;28;19909;-71
2023/04/26 11:16:03;;;;;;;;;;;461.40;1382.40;;;;;;5051918;28;20390;-71
2023/04/26 11:18:29;;;;;;;;;;;461.50;1382.40;;;;;;5057272;28;19921;-71
2023/04/26 11:20:56;;;;;;;;;;;461.20;1382.40;;;;;;5051928;28;19908;-78
2023/04/26 11:23:22;;;;;;;;;;;461.20;1408.00;;;;;;5052465;28;20272;-73
2023/04/26 11:25:48;;;;;;;;;;;461.10;1433.60;;;;;;5052821;28;19909;-71
2023/04/26 11:28:13;;;;;;;;;;;461.60;1382.40;;;;;;5052012;28;19909;-74
2023/04/26 11:30:39;;;;;;;;;;;486.40;1280.00;;;;;;5052090;28;19955;-72
2023/04/26 11:33:05;;;;;;;;;;;486.70;1228.80;;;;;;5052001;28;19951;-72
2023/04/26 11:35:37;;;;;;;;;;;486.80;1203.20;;;;;;5052205;28;20055;-74
2023/04/26 11:38:04;;;;;;;;;;;486.90;1203.20;;;;;;5051758;28;19920;-74
2023/04/26 11:40:30;;;;;;;;;;;486.80;1177.60;;;;;;5052208;28;19908;-73
2023/04/26 11:43:00;;;;;;;;;;;487.00;1203.20;;;;;;5051752;28;20387;-74
2023/04/26 11:45:26;;;;;;;;;;;487.00;1177.60;;;;;;5045734;28;19912;-72
2023/04/26 11:47:51;;;;;;;;;;;487.10;1152.00;;;;;;5050589;28;19909;-69
2023/04/26 11:50:17;;;;;;;;;;;487.10;1152.00;;;;;;5052077;28;19909;-71
2023/04/26 11:52:43;;;;;;;;;;;486.80;1177.60;;;;;;5051891;28;20376;-71
2023/04/26 11:55:09;;;;;;;;;;;486.90;1152.00;;;;;;5051706;28;20395;-71
2023/04/26 11:57:34;;;;;;;;;;;487.00;1152.00;;;;;;5052009;28;20411;-70
2023/04/26 12:00:14;;;;;;;;;;;486.90;1152.00;;;;;;5052091;28;20046;-70
2023/04/26 12:02:45;;;;;;;;;;;487.00;1177.60;;;;;;5052665;28;19908;-72
2023/04/26 12:05:19;;;;;;;;;;;487.10;1152.00;;;;;;5055716;28;19905;-75
2023/04/26 12:07:48;;;;;;;;;;;487.20;1152.00;;;;;;5053876;28;19904;-70
2023/04/26 12:10:17;;;;;;;;;;;512.00;1177.60;;;;;;5056091;28;19913;-76
2023/04/26 12:12:44;;;;;;;;;;;486.80;1177.60;;;;;;5056015;28;19911;-71
2023/04/26 12:15:11;;;;;;;;;;;487.10;1152.00;;;;;;5055419;28;19967;-71
2023/04/26 12:17:36;;;;;;;;;;;487.30;1152.00;;;;;;5049834;28;19920;-72
2023/04/26 12:20:08;;;;;;;;;;;487.20;1152.00;;;;;;5069948;28;20268;-71
2023/04/26 12:22:34;;;;;;;;;;;487.00;1152.00;;;;;;5055573;28;19904;-72
2023/04/26 12:25:03;;;;;;;;;;;487.10;1152.00;;;;;;5055381;28;19911;-71
2023/04/26 12:27:29;;;;;;;;;;;512.00;1152.00;;;;;;5055061;28;20008;-72
2023/04/26 12:29:55;;;;;;;;;;;487.00;1177.60;;;;;;5055243;28;19952;-72
2023/04/26 12:32:20;;;;;;;;;;;486.50;1203.20;;;;;;5055162;28;19905;-73
2023/04/26 12:34:46;;;;;;;;;;;487.10;1203.20;;;;;;5055301;28;19919;-71
2023/04/26 12:37:11;;;;;;;;;;;486.90;1228.80;;;;;;5054983;28;19928;-73
2023/04/26 12:39:37;;;;;;;;;;;487.10;1203.20;;;;;;5054829;28;20280;-71
2023/04/26 12:42:03;;;;;;;;;;;486.80;1203.20;;;;;;5053075;28;19930;-71
2023/04/26 12:44:28;;;;;;;;;;;486.40;1228.80;;;;;;5052095;28;19916;-71
2023/04/26 12:46:54;;;;;;;;;;;486.60;1254.40;;;;;;5055024;28;19919;-72
2023/04/26 12:49:19;;;;;;;;;;;486.80;1254.40;;;;;;5054920;28;19912;-72
2023/04/26 12:51:45;;;;;;;;;;;487.10;1254.40;;;;;;5051684;28;19958;-72
2023/04/26 12:54:11;;;;;;;;;;;487.10;1228.80;;;;;;5054359;28;19909;-71
2023/04/26 12:56:42;;;;;;;;;;;487.10;1228.80;;;;;;5054981;28;19913;-71
2023/04/26 12:59:08;;;;;;;;;;;512.10;1203.20;;;;;;5054515;28;19920;-74
2023/04/26 13:01:34;;;;;;;;;;;512.70;1152.00;;;;;;5054689;28;19916;-71
2023/04/26 13:03:59;;;;;;;;;;;512.10;1177.60;;;;;;5054430;28;19905;-72
2023/04/26 13:06:26;;;;;;;;;;;512.40;1203.20;;;;;;5054274;28;20020;-73
2023/04/26 13:08:52;;;;;;;;;;;512.40;1177.60;;;;;;5054327;28;19905;-72
2023/04/26 13:11:17;;;;;;;;;;;487.10;1177.60;;;;;;5054135;28;20296;-71